Time;durP1;ratioP1;P1;durP2;ratioP2;P2;SDS_P1;SDS_P2;PMS_P1;PMS_P2;Temp;Humidity;BMP_temperature;BMP_pressure;BME280_temperature;BME280_humidity;BME280_pressure;Samples;Min_cycle;Max_cycle;Signal;HPM_P1;HPM_P2
2022/11/16 00:01:24;;;;;;;10.30;8.00;;;10.70;48.40;;;;;;5033248;28;20190;-42
2022/11/16 00:03:52;;;;;;;11.23;7.50;;;10.70;48.20;;;;;;5033140;28;20483;-42
2022/11/16 00:06:19;;;;;;;8.90;7.10;;;10.70;48.30;;;;;;5032484;28;20194;-42
2022/11/16 00:11:37;;;;;;;10.13;7.35;;;10.70;48.40;;;;;;5033321;28;20675;-42
2022/11/16 00:14:04;;;;;;;10.93;7.37;;;10.70;48.60;;;;;;5032959;28;20182;-42
2022/11/16 00:16:30;;;;;;;10.07;7.40;;;10.60;48.50;;;;;;5032204;28;20463;-42
2022/11/16 00:18:57;;;;;;;11.90;7.45;;;10.70;48.40;;;;;;5032829;28;20633;-42
2022/11/16 00:21:24;;;;;;;13.27;8.00;;;10.70;49.20;;;;;;5032788;28;20688;-41
2022/11/16 00:23:50;;;;;;;11.38;8.10;;;10.70;48.40;;;;;;5032836;28;20170;-42
2022/11/16 00:26:16;;;;;;;12.03;8.57;;;10.70;48.40;;;;;;5031819;28;20197;-42
2022/11/16 00:28:42;;;;;;;12.33;8.67;;;10.70;48.50;;;;;;5032841;28;20217;-42
2022/11/16 00:31:09;;;;;;;10.60;8.03;;;10.70;48.50;;;;;;5032897;28;20518;-41
2022/11/16 00:33:34;;;;;;;9.85;7.10;;;10.60;48.70;;;;;;5033169;28;20673;-42
2022/11/16 00:36:02;;;;;;;11.17;7.40;;;10.60;48.60;;;;;;5031874;28;20331;-41
2022/11/16 00:38:27;;;;;;;12.88;8.75;;;10.60;48.60;;;;;;5032578;28;20486;-42
2022/11/16 00:40:53;;;;;;;8.40;6.63;;;10.60;48.50;;;;;;5032671;28;20686;-42
2022/11/16 00:43:19;;;;;;;10.00;7.00;;;10.60;48.30;;;;;;5032457;28;20180;-42
2022/11/16 00:45:45;;;;;;;8.50;7.13;;;10.60;48.20;;;;;;5032020;28;20193;-41
2022/11/16 00:48:11;;;;;;;9.00;6.50;;;10.70;48.30;;;;;;5032394;28;20166;-42
2022/11/16 00:50:37;;;;;;;11.25;6.90;;;10.60;49.10;;;;;;5032511;28;20186;-42
2022/11/16 00:53:04;;;;;;;10.73;7.68;;;10.70;48.30;;;;;;5032414;28;20174;-42
2022/11/16 00:55:30;;;;;;;10.38;7.03;;;10.70;48.40;;;;;;5032049;28;20205;-41
2022/11/16 00:57:56;;;;;;;11.45;7.28;;;10.60;48.30;;;;;;5032220;28;20257;-41
2022/11/16 01:00:22;;;;;;;9.80;7.67;;;10.60;48.00;;;;;;5032717;28;20202;-41
2022/11/16 01:02:48;;;;;;;7.97;6.70;;;10.70;48.20;;;;;;5033201;28;20185;-41
2022/11/16 01:05:14;;;;;;;10.27;8.13;;;10.70;48.20;;;;;;5032962;28;20452;-41
2022/11/16 01:07:40;;;;;;;10.57;7.73;;;10.60;48.40;;;;;;5032423;28;20416;-42
2022/11/16 01:10:10;;;;;;;8.80;6.40;;;10.60;48.30;;;;;;5032372;28;20219;-42
2022/11/16 01:12:36;;;;;;;7.65;5.80;;;10.60;48.40;;;;;;5032489;28;20253;-42
2022/11/16 01:15:05;;;;;;;14.07;7.30;;;10.60;48.40;;;;;;5032227;28;20604;-42
2022/11/16 01:17:31;;;;;;;10.40;6.90;;;10.60;48.40;;;;;;5031834;28;20178;-41
2022/11/16 01:19:56;;;;;;;9.40;7.70;;;10.60;48.60;;;;;;5032040;28;20546;-42
2022/11/16 01:22:22;;;;;;;8.60;6.87;;;10.60;48.50;;;;;;5032214;28;20173;-42
2022/11/16 01:24:48;;;;;;;10.00;7.50;;;10.60;48.30;;;;;;5032217;28;20554;-42
2022/11/16 01:27:14;;;;;;;10.17;6.40;;;10.60;48.50;;;;;;5031540;28;20516;-42
2022/11/16 01:29:40;;;;;;;9.17;7.13;;;10.70;48.50;;;;;;5031886;28;20166;-42
2022/11/16 01:32:05;;;;;;;9.57;7.40;;;10.60;48.70;;;;;;5032208;28;20555;-42
2022/11/16 01:34:32;;;;;;;10.63;7.27;;;10.60;48.50;;;;;;5031702;28;20428;-42
2022/11/16 01:36:57;;;;;;;12.32;7.55;;;10.70;48.40;;;;;;5031266;28;20224;-42
2022/11/16 01:39:23;;;;;;;9.37;6.83;;;10.60;48.30;;;;;;5035522;28;20178;-42
2022/11/16 01:41:49;;;;;;;8.20;6.63;;;10.60;48.60;;;;;;5035821;28;20169;-42
2022/11/16 01:44:30;;;;;;;11.60;6.83;;;10.60;48.60;;;;;;5035644;28;20185;-42
2022/11/16 01:46:56;;;;;;;9.38;6.78;;;10.70;48.60;;;;;;5035217;28;20601;-41
2022/11/16 01:49:24;;;;;;;11.73;7.80;;;10.60;48.90;;;;;;5035930;28;20654;-42
2022/11/16 01:52:01;;;;;;;10.80;6.75;;;10.60;48.90;;;;;;5034374;28;20463;-41
2022/11/16 01:54:28;;;;;;;10.48;6.60;;;10.70;48.80;;;;;;5035729;28;20256;-42
2022/11/16 01:56:55;;;;;;;10.95;7.65;;;10.70;48.60;;;;;;5035000;28;20196;-42
2022/11/16 01:59:21;;;;;;;10.52;7.68;;;10.70;48.40;;;;;;5035529;28;20178;-42
2022/11/16 02:01:47;;;;;;;10.47;7.47;;;10.70;48.60;;;;;;5035610;28;20166;-42
2022/11/16 02:04:13;;;;;;;10.77;7.50;;;10.70;48.80;;;;;;5035670;28;20446;-41
2022/11/16 02:06:58;;;;;;;10.63;7.55;;;10.70;48.40;;;;;;5034865;28;20170;-42
2022/11/16 02:09:54;;;;;;;11.25;8.50;;;10.80;48.30;;;;;;5035388;28;20170;-42
2022/11/16 02:12:44;;;;;;;9.77;7.47;;;10.80;48.40;;;;;;5035309;28;20158;-42
2022/11/16 02:15:23;;;;;;;8.73;6.38;;;10.80;48.30;;;;;;5035095;28;20669;-42
2022/11/16 02:18:38;;;;;;;11.02;7.57;;;10.80;48.40;;;;;;5034616;28;20257;-42
2022/11/16 02:21:50;;;;;;;12.85;6.80;;;10.80;48.50;;;;;;5002570;28;20207;-42
2022/11/16 02:24:52;;;;;;;13.38;8.60;;;10.70;48.70;;;;;;4954545;28;20180;-42
2022/11/16 02:27:55;;;;;;;12.00;6.88;;;10.70;49.10;;;;;;4953892;29;20184;-42
2022/11/16 02:30:22;;;;;;;10.77;6.40;;;10.70;49.20;;;;;;4954566;29;20306;-42
2022/11/16 02:32:56;;;;;;;11.48;7.72;;;10.60;49.30;;;;;;4954609;29;20184;-42
2022/11/16 02:35:48;;;;;;;10.70;8.00;;;10.60;49.20;;;;;;4954121;28;20215;-42
2022/11/16 02:38:19;;;;;;;10.80;7.72;;;10.70;49.00;;;;;;4949976;28;20204;-42
2022/11/16 02:40:49;;;;;;;8.32;7.28;;;10.70;49.10;;;;;;4954436;29;20165;-42
2022/11/16 02:43:29;;;;;;;15.32;8.80;;;10.70;49.20;;;;;;4938196;29;20211;-42
2022/11/16 02:46:01;;;;;;;12.43;8.45;;;10.70;49.20;;;;;;4953758;28;20200;-42
2022/11/16 02:48:33;;;;;;;11.18;7.47;;;10.70;49.30;;;;;;4954089;28;20735;-41
2022/11/16 02:51:00;;;;;;;12.10;7.60;;;10.70;49.30;;;;;;4954325;29;20182;-41
2022/11/16 02:53:26;;;;;;;12.38;8.82;;;10.70;49.30;;;;;;4954183;28;20177;-42
2022/11/16 02:55:52;;;;;;;9.40;7.25;;;10.70;49.20;;;;;;5021894;28;20213;-41
2022/11/16 02:58:22;;;;;;;9.63;7.40;;;10.70;49.20;;;;;;5034823;28;20182;-42
2022/11/16 03:00:57;;;;;;;9.52;7.53;;;10.80;49.10;;;;;;5034645;28;20166;-42
2022/11/16 03:03:33;;;;;;;11.48;7.82;;;10.70;49.30;;;;;;5034297;28;20193;-42
2022/11/16 03:06:21;;;;;;;12.73;7.85;;;10.80;49.00;;;;;;5033674;28;20190;-42
2022/11/16 03:09:39;;;;;;;15.00;8.32;;;10.80;48.90;;;;;;5034368;28;20228;-42
2022/11/16 03:12:08;;;;;;;11.35;7.18;;;10.80;48.80;;;;;;5000643;28;20186;-42
2022/11/16 03:14:52;;;;;;;12.35;7.47;;;10.70;49.20;;;;;;5034025;28;20251;-41
2022/11/16 03:17:28;;;;;;;10.88;7.60;;;10.70;49.20;;;;;;5033529;28;20173;-42
2022/11/16 03:20:14;;;;;;;10.15;7.15;;;10.70;49.50;;;;;;5034116;28;20684;-42
2022/11/16 03:22:46;;;;;;;10.45;7.80;;;10.70;49.50;;;;;;5034265;28;20170;-42
2022/11/16 03:25:16;;;;;;;11.63;7.90;;;10.70;49.30;;;;;;5033789;28;20190;-42
2022/11/16 03:28:04;;;;;;;13.60;9.10;;;10.80;49.20;;;;;;5033391;28;20166;-42
2022/11/16 03:30:35;;;;;;;11.13;7.43;;;10.70;49.40;;;;;;5033698;28;20604;-42
2022/11/16 03:33:17;;;;;;;14.10;7.32;;;10.70;49.50;;;;;;5034097;28;20180;-42
2022/11/16 03:36:23;;;;;;;11.02;7.30;;;10.70;49.40;;;;;;5033008;28;20210;-42
2022/11/16 03:38:51;;;;;;;8.60;6.53;;;10.80;49.20;;;;;;4953181;28;20168;-42
2022/11/16 03:41:19;;;;;;;9.23;7.07;;;10.80;49.30;;;;;;5018253;28;20668;-42
2022/11/16 03:43:47;;;;;;;10.65;7.60;;;10.90;49.10;;;;;;5033638;28;20174;-42
2022/11/16 03:46:15;;;;;;;10.20;6.38;;;11.00;48.90;;;;;;5032989;28;20762;-42
2022/11/16 03:48:41;;;;;;;10.57;7.60;;;11.00;48.90;;;;;;5033561;28;20637;-42
2022/11/16 03:51:09;;;;;;;11.63;6.93;;;11.00;48.80;;;;;;5032295;28;20387;-42
2022/11/16 03:53:35;;;;;;;8.23;6.05;;;11.10;48.90;;;;;;5033373;28;20172;-42
2022/11/16 03:56:00;;;;;;;9.03;6.30;;;11.10;48.60;;;;;;5032683;28;20206;-42
2022/11/16 03:58:26;;;;;;;9.63;7.00;;;11.10;48.30;;;;;;5033682;28;20463;-42
2022/11/16 04:00:52;;;;;;;11.00;7.83;;;11.20;48.40;;;;;;5032762;28;20173;-42
2022/11/16 04:03:18;;;;;;;10.57;6.90;;;11.20;48.20;;;;;;5033312;28;20170;-42
2022/11/16 04:25:16;;;;;;;9.07;6.38;;;11.30;48.00;;;;;;5033294;28;20245;-42
2022/11/16 04:37:47;;;;;;;9.15;6.28;;;11.20;48.00;;;;;;5033013;28;20161;-41
2022/11/16 04:38:40;;;;;;;9.77;5.78;;;11.30;47.60;;;;;;5032639;28;20220;-42
2022/11/16 04:42:12;;;;;;;10.10;6.10;;;11.30;47.60;;;;;;5032620;28;20166;-42
2022/11/16 04:43:51;;;;;;;8.40;6.22;;;11.40;47.40;;;;;;5032452;28;20178;-42
2022/11/16 04:49:01;;;;;;;7.90;5.70;;;11.30;47.50;;;;;;5032497;28;20234;-41
2022/11/16 04:51:27;;;;;;;9.80;6.07;;;11.30;48.30;;;;;;5032448;28;20193;-42
2022/11/16 04:53:52;;;;;;;7.70;5.80;;;11.20;47.60;;;;;;5032445;28;20204;-41
2022/11/16 04:56:18;;;;;;;8.27;5.23;;;11.30;47.60;;;;;;5031664;28;20254;-42
2022/11/16 04:58:44;;;;;;;7.60;6.40;;;11.30;47.40;;;;;;5032414;28;20649;-42
2022/11/16 05:01:10;;;;;;;8.97;5.50;;;11.30;47.40;;;;;;5032251;28;20174;-41
2022/11/16 05:03:35;;;;;;;6.30;5.37;;;11.30;47.20;;;;;;5032270;28;20649;-42
2022/11/16 05:06:01;;;;;;;6.47;5.17;;;11.20;47.50;;;;;;5031579;28;20192;-42
2022/11/16 05:08:27;;;;;;;6.70;5.20;;;11.20;47.50;;;;;;5030798;28;20188;-41
2022/11/16 05:10:52;;;;;;;7.37;5.00;;;11.20;47.40;;;;;;5032337;28;20180;-41
2022/11/16 05:13:18;;;;;;;6.97;5.10;;;11.30;47.50;;;;;;5031696;28;20186;-42
2022/11/16 05:15:45;;;;;;;9.70;5.90;;;11.40;47.40;;;;;;5032084;28;20256;-42
2022/11/16 05:18:10;;;;;;;8.00;5.32;;;11.40;47.20;;;;;;5032272;28;20174;-42
2022/11/16 05:26:04;;;;;;;8.23;5.28;;;11.30;46.90;;;;;;5031418;28;20289;-42
2022/11/16 05:28:30;;;;;;;9.30;5.87;;;11.30;46.90;;;;;;5032032;28;20248;-42
2022/11/16 05:30:56;;;;;;;6.83;4.97;;;11.30;46.70;;;;;;5032387;28;20197;-42
2022/11/16 05:33:22;;;;;;;5.57;4.50;;;11.30;46.70;;;;;;5032018;28;20209;-42
2022/11/16 05:35:51;;;;;;;7.53;5.00;;;11.20;46.70;;;;;;5031200;28;20589;-42
2022/11/16 05:38:17;;;;;;;7.47;4.80;;;11.20;46.70;;;;;;5031832;28;20181;-42
2022/11/16 05:40:43;;;;;;;5.53;4.18;;;11.20;46.70;;;;;;5031902;28;20668;-42
2022/11/16 05:43:09;;;;;;;7.97;4.93;;;11.30;46.60;;;;;;5031823;28;20166;-42
2022/11/16 05:45:35;;;;;;;8.20;6.30;;;11.40;46.50;;;;;;5031200;28;20443;-42
2022/11/16 05:48:00;;;;;;;10.00;7.10;;;11.30;46.60;;;;;;5031807;28;20173;-42
2022/11/16 05:50:26;;;;;;;8.63;5.00;;;11.40;46.30;;;;;;5031838;28;20188;-42
2022/11/16 05:52:52;;;;;;;9.93;5.37;;;11.40;46.40;;;;;;5031759;28;20208;-42
2022/11/16 05:55:17;;;;;;;9.20;6.00;;;11.40;46.30;;;;;;5031507;28;20460;-41
2022/11/16 05:57:44;;;;;;;9.60;5.70;;;11.40;46.40;;;;;;5031185;28;20170;-42
2022/11/16 06:00:10;;;;;;;7.68;5.57;;;11.30;46.60;;;;;;5031954;28;20178;-42
2022/11/16 06:02:36;;;;;;;6.80;5.35;;;11.30;46.50;;;;;;5031654;28;20202;-42
2022/11/16 06:05:02;;;;;;;7.70;5.13;;;11.40;46.50;;;;;;5031588;28;20328;-41
2022/11/16 06:07:27;;;;;;;10.27;5.93;;;11.40;46.20;;;;;;5029841;28;20405;-41
2022/11/16 06:09:53;;;;;;;11.13;5.10;;;11.40;46.30;;;;;;5032017;28;20837;-42
2022/11/16 06:12:19;;;;;;;6.20;5.07;;;11.40;46.30;;;;;;5031811;28;20170;-42
2022/11/16 06:14:44;;;;;;;7.20;4.77;;;11.40;46.20;;;;;;5031558;28;20220;-42
2022/11/16 06:17:13;;;;;;;8.47;6.00;;;11.50;46.30;;;;;;5030785;28;20260;-42
2022/11/16 06:19:39;;;;;;;8.65;5.43;;;11.50;46.20;;;;;;5031450;28;20649;-41
2022/11/16 06:22:05;;;;;;;8.68;6.13;;;11.50;46.20;;;;;;5031511;28;20182;-42
2022/11/16 06:24:31;;;;;;;7.47;5.10;;;11.50;46.20;;;;;;5033381;28;20170;-42
2022/11/16 06:26:57;;;;;;;8.90;6.40;;;11.50;46.40;;;;;;5034585;28;20605;-42
2022/11/16 06:29:23;;;;;;;8.82;5.47;;;11.60;46.20;;;;;;5035090;28;20408;-42
2022/11/16 06:31:49;;;;;;;8.10;5.90;;;11.60;46.10;;;;;;5034884;28;20181;-42
2022/11/16 06:34:15;;;;;;;8.00;5.90;;;11.60;46.00;;;;;;5034878;28;20637;-42
2022/11/16 06:36:40;;;;;;;12.07;6.60;;;11.70;46.10;;;;;;5034237;28;20452;-41
2022/11/16 06:39:06;;;;;;;8.47;5.20;;;11.60;45.90;;;;;;5034799;28;20166;-42
2022/11/16 06:41:33;;;;;;;10.17;5.60;;;11.60;45.90;;;;;;5034764;28;20638;-42
2022/11/16 06:43:58;;;;;;;8.93;5.65;;;11.60;46.50;;;;;;5034824;28;20185;-42
2022/11/16 06:46:24;;;;;;;9.37;6.47;;;11.60;46.00;;;;;;5033978;28;20190;-41
2022/11/16 06:48:50;;;;;;;10.57;6.57;;;11.60;46.00;;;;;;5034608;28;20484;-42
2022/11/16 06:51:16;;;;;;;7.90;5.00;;;11.60;46.00;;;;;;5034398;28;20780;-42
2022/11/16 06:53:42;;;;;;;9.27;6.43;;;11.50;46.00;;;;;;5034563;28;20499;-42
2022/11/16 06:56:11;;;;;;;7.57;5.67;;;11.50;46.20;;;;;;5033813;28;20213;-42
2022/11/16 06:58:36;;;;;;;7.93;5.38;;;11.50;46.20;;;;;;5034559;28;20162;-42
2022/11/16 07:01:10;;;;;;;10.90;6.30;;;11.40;46.00;;;;;;5034463;28;20224;-42
2022/11/16 07:03:35;;;;;;;8.50;5.93;;;11.40;46.20;;;;;;5034577;28;20169;-41
2022/11/16 07:06:07;;;;;;;9.90;6.27;;;11.40;46.30;;;;;;5033685;28;20259;-42
2022/11/16 07:08:32;;;;;;;9.18;5.88;;;11.40;46.30;;;;;;5034530;28;20257;-42
2022/11/16 07:11:02;;;;;;;8.47;5.87;;;11.40;46.20;;;;;;5034338;28;20261;-42
2022/11/16 07:13:29;;;;;;;8.60;6.43;;;11.50;46.10;;;;;;5034168;28;20180;-42
2022/11/16 07:16:03;;;;;;;8.68;5.57;;;11.40;45.90;;;;;;5036703;28;20216;-42
2022/11/16 07:18:35;;;;;;;6.72;5.38;;;11.40;46.00;;;;;;5040163;28;20170;-42
2022/11/16 07:21:09;;;;;;;9.30;6.43;;;11.50;46.30;;;;;;5037067;28;20206;-42
2022/11/16 07:23:35;;;;;;;7.63;5.68;;;11.50;46.30;;;;;;5043807;28;20571;-42
2022/11/16 07:26:02;;;;;;;9.45;6.15;;;11.50;46.30;;;;;;5045444;28;20221;-41
2022/11/16 07:28:28;;;;;;;9.00;5.85;;;11.50;46.30;;;;;;5044075;28;20181;-42
2022/11/16 07:30:55;;;;;;;9.77;6.03;;;11.60;46.00;;;;;;5045571;28;20170;-42
2022/11/16 07:33:21;;;;;;;8.68;6.07;;;11.50;45.80;;;;;;5045608;28;20189;-42
2022/11/16 07:35:46;;;;;;;9.17;4.83;;;11.60;46.00;;;;;;5041998;28;20210;-42
2022/11/16 07:38:12;;;;;;;11.30;6.67;;;11.50;45.90;;;;;;5038507;28;20407;-42
2022/11/16 07:40:38;;;;;;;6.37;4.67;;;11.50;46.30;;;;;;5033599;28;20182;-41
2022/11/16 07:43:03;;;;;;;7.90;5.10;;;11.50;46.30;;;;;;5033972;28;20597;-42
2022/11/16 07:45:29;;;;;;;9.17;6.37;;;11.50;46.10;;;;;;5033656;28;20252;-42
2022/11/16 07:47:55;;;;;;;8.03;5.43;;;11.40;46.00;;;;;;5033413;28;20174;-42
2022/11/16 07:50:21;;;;;;;7.20;5.53;;;11.40;46.20;;;;;;5033404;28;20581;-42
2022/11/16 07:52:46;;;;;;;8.77;6.03;;;11.40;46.20;;;;;;5033535;28;20174;-42
2022/11/16 07:55:12;;;;;;;10.33;6.13;;;11.50;46.20;;;;;;5033152;28;20194;-42
2022/11/16 07:57:38;;;;;;;7.63;5.43;;;11.60;46.00;;;;;;5032746;28;20205;-42
2022/11/16 08:00:05;;;;;;;8.67;5.40;;;11.70;45.80;;;;;;5033239;28;20634;-42
2022/11/16 08:02:31;;;;;;;7.57;5.75;;;11.70;45.60;;;;;;5033208;28;20173;-42
2022/11/16 08:04:56;;;;;;;7.53;5.77;;;11.60;45.60;;;;;;5033249;28;20194;-42
2022/11/16 08:07:22;;;;;;;5.80;4.77;;;11.70;45.60;;;;;;5032517;28;20503;-42
2022/11/16 08:09:48;;;;;;;6.63;4.40;;;11.70;45.20;;;;;;5032955;28;20252;-42
2022/11/16 08:12:15;;;;;;;10.20;6.20;;;11.60;45.70;;;;;;5033011;28;20173;-42
2022/11/16 08:14:41;;;;;;;9.05;5.40;;;11.60;45.60;;;;;;5032945;28;20198;-42
2022/11/16 08:17:07;;;;;;;8.17;5.87;;;11.60;45.60;;;;;;5032413;28;20212;-42
2022/11/16 08:19:33;;;;;;;7.97;5.27;;;11.70;45.80;;;;;;5032768;28;20182;-42
2022/11/16 08:21:59;;;;;;;7.50;5.75;;;11.70;45.50;;;;;;5032801;28;20162;-41
2022/11/16 08:24:25;;;;;;;9.53;5.27;;;11.80;45.60;;;;;;5032616;28;20182;-42
2022/11/16 08:26:50;;;;;;;8.87;6.40;;;11.80;45.50;;;;;;5032307;28;20939;-42
2022/11/16 08:29:16;;;;;;;11.60;6.47;;;11.80;45.20;;;;;;5032688;28;20420;-42
2022/11/16 08:31:43;;;;;;;10.30;5.53;;;11.70;45.70;;;;;;5032665;28;20212;-42
2022/11/16 08:34:09;;;;;;;10.13;6.55;;;11.70;45.60;;;;;;5032538;28;20411;-42
2022/11/16 08:36:35;;;;;;;9.40;7.37;;;11.80;45.50;;;;;;5031789;28;20210;-42
2022/11/16 08:39:01;;;;;;;9.00;6.30;;;11.80;45.50;;;;;;5032481;28;20424;-41
2022/11/16 08:41:26;;;;;;;9.53;6.27;;;11.90;45.40;;;;;;5032454;28;20170;-42
2022/11/16 08:43:52;;;;;;;9.90;6.00;;;12.00;45.30;;;;;;5032451;28;20455;-42
2022/11/16 08:46:19;;;;;;;12.53;7.00;;;12.00;45.40;;;;;;5031590;28;20228;-42
2022/11/16 08:48:45;;;;;;;10.13;6.15;;;12.10;45.30;;;;;;5032355;28;20408;-42
2022/11/16 08:51:14;;;;;;;6.55;5.22;;;12.10;45.00;;;;;;5032383;28;20211;-41
2022/11/16 08:53:40;;;;;;;10.48;8.00;;;12.20;45.00;;;;;;5032208;28;20609;-42
2022/11/16 08:56:08;;;;;;;9.65;6.30;;;12.30;45.10;;;;;;5031300;28;20205;-42
2022/11/16 08:58:35;;;;;;;9.48;5.25;;;12.30;44.70;;;;;;5032131;28;20651;-42
2022/11/16 09:01:12;;;;;;;9.15;6.47;;;12.30;44.10;;;;;;5032374;28;20507;-42
2022/11/16 09:03:39;;;;;;;10.23;6.70;;;12.30;44.40;;;;;;5032117;28;20179;-43
2022/11/16 09:06:05;;;;;;;6.70;5.65;;;12.40;44.40;;;;;;5031519;28;20558;-42
2022/11/16 09:08:32;;;;;;;9.68;7.07;;;12.40;44.20;;;;;;5031999;28;20181;-42
2022/11/16 09:10:58;;;;;;;9.80;6.30;;;12.40;44.30;;;;;;5032150;28;20173;-42
2022/11/16 09:13:24;;;;;;;10.82;7.07;;;12.40;44.40;;;;;;5031997;28;20638;-42
2022/11/16 09:15:59;;;;;;;10.07;6.75;;;12.50;44.30;;;;;;5031369;28;20292;-42
2022/11/16 09:18:26;;;;;;;10.02;5.60;;;12.60;44.10;;;;;;5031997;28;20219;-42
2022/11/16 09:20:52;;;;;;;7.53;5.10;;;12.60;44.10;;;;;;5031983;28;20205;-42
2022/11/16 09:23:18;;;;;;;10.88;6.53;;;12.60;44.20;;;;;;5031976;28;20691;-42
2022/11/16 09:25:47;;;;;;;8.13;5.43;;;12.70;44.20;;;;;;5031333;28;20208;-42
2022/11/16 09:28:19;;;;;;;8.32;6.40;;;12.70;43.70;;;;;;5032301;28;20182;-42
2022/11/16 09:30:46;;;;;;;9.48;6.60;;;12.70;43.70;;;;;;5031955;28;20561;-42
2022/11/16 09:33:12;;;;;;;9.88;7.45;;;12.60;43.30;;;;;;5031762;28;20173;-42
2022/11/16 09:35:39;;;;;;;10.50;5.13;;;12.70;43.90;;;;;;5031090;28;20297;-42
2022/11/16 09:38:05;;;;;;;9.93;6.03;;;12.70;43.80;;;;;;5031877;28;20419;-42
2022/11/16 09:40:37;;;;;;;10.10;6.80;;;12.70;43.70;;;;;;5031773;28;20245;-42
2022/11/16 09:43:44;;;;;;;10.82;7.80;;;12.60;43.80;;;;;;5031816;28;20166;-42
2022/11/16 09:46:19;;;;;;;8.27;6.43;;;12.60;43.50;;;;;;5027223;28;20344;-42
2022/11/16 09:48:46;;;;;;;10.48;6.30;;;12.70;44.00;;;;;;5031724;28;20166;-42
2022/11/16 09:51:14;;;;;;;8.90;5.75;;;12.70;43.80;;;;;;5031730;28;20166;-42
2022/11/16 09:53:50;;;;;;;9.00;5.65;;;12.70;43.80;;;;;;5031733;28;20182;-42
2022/11/16 09:56:20;;;;;;;8.10;5.45;;;12.80;43.80;;;;;;5031150;28;20201;-42
2022/11/16 09:59:02;;;;;;;7.55;5.45;;;12.70;43.60;;;;;;5032584;28;20197;-41
2022/11/16 10:01:49;;;;;;;7.28;5.43;;;12.80;43.60;;;;;;5035343;28;20177;-41
2022/11/16 10:04:37;;;;;;;7.43;5.60;;;12.80;43.60;;;;;;5035254;28;20150;-42
2022/11/16 10:07:32;;;;;;;6.13;5.18;;;12.80;43.20;;;;;;5034773;28;20220;-42
2022/11/16 10:10:24;;;;;;;7.85;5.45;;;12.70;43.30;;;;;;5035300;28;20197;-42
2022/11/16 10:13:17;;;;;;;8.32;5.68;;;12.60;43.50;;;;;;5034482;28;20189;-42
2022/11/16 10:15:59;;;;;;;8.30;6.20;;;12.70;43.90;;;;;;5034537;28;20733;-42
2022/11/16 10:18:50;;;;;;;7.82;6.57;;;12.80;44.00;;;;;;5035434;28;20159;-42
2022/11/16 10:21:18;;;;;;;10.40;6.03;;;12.80;43.80;;;;;;5035110;28;20172;-42
2022/11/16 10:24:25;;;;;;;7.03;4.93;;;12.80;43.40;;;;;;5035104;28;20170;-42
2022/11/16 10:27:21;;;;;;;8.00;5.35;;;12.90;43.60;;;;;;5022686;28;20178;-42
2022/11/16 10:30:08;;;;;;;10.15;6.22;;;12.90;43.80;;;;;;5034963;28;20165;-42
2022/11/16 10:32:40;;;;;;;7.32;4.93;;;13.00;43.20;;;;;;5035136;28;20163;-42
2022/11/16 10:35:16;;;;;;;7.10;5.45;;;13.00;43.30;;;;;;5034664;28;20331;-42
2022/11/16 10:37:48;;;;;;;7.93;5.20;;;13.00;43.20;;;;;;5034294;28;20165;-42
2022/11/16 10:40:34;;;;;;;6.53;4.88;;;13.00;43.10;;;;;;5035034;28;20169;-42
2022/11/16 10:43:09;;;;;;;7.22;4.47;;;13.10;43.00;;;;;;5034662;28;20166;-42
2022/11/16 10:45:51;;;;;;;6.40;4.82;;;13.00;42.80;;;;;;5033991;28;20193;-42
2022/11/16 10:48:28;;;;;;;5.32;3.97;;;13.00;42.70;;;;;;5034539;28;20170;-42
2022/11/16 10:50:54;;;;;;;6.38;4.60;;;13.00;42.50;;;;;;5034639;28;20240;-42
2022/11/16 10:53:35;;;;;;;6.05;4.90;;;12.90;42.50;;;;;;5034469;28;20173;-42
2022/11/16 10:56:16;;;;;;;5.05;3.92;;;13.00;43.00;;;;;;5033825;28;20209;-42
2022/11/16 10:58:54;;;;;;;6.63;3.80;;;12.90;42.80;;;;;;5034632;28;20546;-42
2022/11/16 11:01:36;;;;;;;7.03;4.40;;;13.00;42.50;;;;;;5034286;28;20192;-42
2022/11/16 11:04:26;;;;;;;4.80;3.60;;;13.10;42.70;;;;;;5034335;28;20162;-42
2022/11/16 11:07:01;;;;;;;7.00;4.00;;;13.10;42.10;;;;;;5033721;28;20641;-42
2022/11/16 11:09:37;;;;;;;5.15;4.07;;;13.10;41.90;;;;;;5034307;28;20622;-42
2022/11/16 11:15:10;;;;;;;5.32;3.72;;;13.10;42.20;;;;;;5034147;28;20569;-42
2022/11/16 11:17:38;;;;;;;5.47;3.28;;;13.10;41.90;;;;;;5033606;28;20622;-42
2022/11/16 11:20:15;;;;;;;5.35;4.20;;;13.10;42.40;;;;;;5034096;28;20308;-42
2022/11/16 11:22:54;;;;;;;4.05;3.28;;;13.10;42.10;;;;;;5034104;28;20243;-42
2022/11/16 11:25:56;;;;;;;5.78;3.45;;;13.20;41.90;;;;;;5033800;28;20225;-42
2022/11/16 11:28:25;;;;;;;5.10;3.40;;;13.30;41.90;;;;;;5034058;28;20193;-42
2022/11/16 11:30:59;;;;;;;5.05;3.10;;;13.20;41.90;;;;;;5034000;28;20174;-42
2022/11/16 11:33:28;;;;;;;6.15;3.65;;;13.30;42.00;;;;;;5033932;28;20220;-41
2022/11/16 11:36:08;;;;;;;4.38;3.85;;;13.30;42.20;;;;;;5032735;28;20217;-42
2022/11/16 11:38:53;;;;;;;3.75;2.78;;;13.40;42.00;;;;;;5033965;28;20173;-42
2022/11/16 11:41:19;;;;;;;12.75;4.55;;;13.40;41.90;;;;;;5033594;28;20159;-42
2022/11/16 11:44:02;;;;;;;4.60;2.67;;;13.40;42.00;;;;;;5033455;28;20212;-42
2022/11/16 11:46:31;;;;;;;4.10;3.25;;;13.50;42.10;;;;;;5033123;28;20255;-42
2022/11/16 11:49:05;;;;;;;5.43;3.97;;;13.50;42.40;;;;;;5033400;28;20197;-43
2022/11/16 11:51:34;;;;;;;4.68;3.47;;;13.60;42.30;;;;;;5033425;28;20158;-42
2022/11/16 11:54:03;;;;;;;5.18;4.05;;;13.60;42.10;;;;;;5033429;28;20177;-42
2022/11/16 11:56:32;;;;;;;4.80;4.05;;;13.60;41.70;;;;;;5033175;28;20557;-42
2022/11/16 11:58:57;;;;;;;7.00;4.60;;;13.60;42.10;;;;;;5033592;28;20537;-42
2022/11/16 12:01:29;;;;;;;4.50;2.70;;;13.60;42.00;;;;;;5033022;28;20170;-42
2022/11/16 12:04:21;;;;;;;4.90;4.40;;;13.70;42.00;;;;;;5033005;28;20166;-42
2022/11/16 12:06:56;;;;;;;4.50;3.10;;;13.70;41.60;;;;;;5013140;28;20174;-42
2022/11/16 12:09:40;;;;;;;4.45;3.65;;;13.60;41.80;;;;;;5032988;28;20630;-42
2022/11/16 12:12:32;;;;;;;5.50;3.83;;;13.70;42.00;;;;;;5033109;28;20174;-42
2022/11/16 12:15:02;;;;;;;5.18;3.03;;;13.70;41.70;;;;;;5028050;28;20618;-42
2022/11/16 12:18:01;;;;;;;4.47;2.95;;;13.70;41.80;;;;;;5032343;28;20709;-42
2022/11/16 12:20:54;;;;;;;4.95;3.40;;;13.70;41.90;;;;;;5032926;28;20154;-42
2022/11/16 12:23:48;;;;;;;3.92;2.90;;;13.70;41.70;;;;;;5032470;28;20166;-42
2022/11/16 12:26:46;;;;;;;4.40;3.45;;;13.70;41.40;;;;;;5028187;28;20210;-42
2022/11/16 12:29:41;;;;;;;4.65;3.40;;;13.80;41.40;;;;;;5033079;28;20280;-42
2022/11/16 12:32:38;;;;;;;4.38;2.65;;;13.80;41.30;;;;;;5032626;28;20158;-41
2022/11/16 12:35:28;;;;;;;4.95;3.42;;;13.80;41.70;;;;;;5032475;28;20205;-42
2022/11/16 12:37:59;;;;;;;4.72;3.65;;;13.90;42.00;;;;;;5032220;28;20855;-42
2022/11/16 12:40:25;;;;;;;3.90;3.33;;;13.90;41.50;;;;;;5032482;28;20181;-42
2022/11/16 12:43:20;;;;;;;4.30;3.57;;;14.00;41.00;;;;;;5032407;28;20166;-42
2022/11/16 12:45:57;;;;;;;3.58;3.22;;;14.00;41.30;;;;;;5032043;28;20194;-42
2022/11/16 12:49:07;;;;;;;8.80;3.95;;;14.00;41.20;;;;;;5032439;28;20181;-43
2022/11/16 12:51:33;;;;;;;4.72;3.72;;;14.00;41.30;;;;;;4999879;28;20197;-41
2022/11/16 12:54:16;;;;;;;4.47;3.50;;;14.00;41.20;;;;;;5032403;28;20178;-40
2022/11/16 12:57:08;;;;;;;4.93;3.35;;;14.10;41.20;;;;;;5031650;28;20186;-42
2022/11/16 13:00:03;;;;;;;5.38;4.45;;;14.10;41.30;;;;;;5032225;28;20158;-42
2022/11/16 13:02:56;;;;;;;4.20;3.78;;;14.10;41.80;;;;;;5032232;28;20170;-42
2022/11/16 13:05:22;;;;;;;4.88;3.70;;;14.10;41.80;;;;;;5032221;28;20243;-42
2022/11/16 13:07:52;;;;;;;5.70;4.23;;;14.10;41.70;;;;;;5031511;28;20166;-42
2022/11/16 13:10:33;;;;;;;5.38;3.28;;;14.10;41.70;;;;;;5032142;28;20150;-42
2022/11/16 13:13:03;;;;;;;6.25;3.25;;;14.20;41.90;;;;;;5032136;28;20177;-42
2022/11/16 13:15:39;;;;;;;6.18;4.07;;;14.20;41.90;;;;;;5031784;28;20182;-42
2022/11/16 13:18:10;;;;;;;4.15;3.10;;;14.20;42.10;;;;;;5032012;28;20163;-42
2022/11/16 13:20:53;;;;;;;4.70;3.55;;;14.30;42.10;;;;;;5032062;28;20158;-42
2022/11/16 13:23:31;;;;;;;4.65;3.90;;;14.30;42.20;;;;;;5032026;28;20170;-42
2022/11/16 13:26:14;;;;;;;6.05;4.53;;;14.30;42.30;;;;;;5031706;28;20204;-42
2022/11/16 13:28:43;;;;;;;8.85;6.43;;;14.30;42.30;;;;;;5032139;28;20170;-42
2022/11/16 13:31:25;;;;;;;5.32;4.50;;;14.20;42.40;;;;;;5031888;28;20198;-42
2022/11/16 13:34:02;;;;;;;11.10;10.00;;;14.20;42.70;;;;;;5032991;28;20521;-42
2022/11/16 13:36:43;;;;;;;19.58;14.68;;;14.10;42.90;;;;;;5035140;28;20723;-42
2022/11/16 13:39:12;;;;;;;11.52;8.45;;;14.10;43.00;;;;;;5036159;28;20170;-42
2022/11/16 13:41:43;;;;;;;7.88;6.15;;;14.10;43.20;;;;;;5035800;28;20173;-42
2022/11/16 13:44:21;;;;;;;7.60;6.35;;;14.00;43.30;;;;;;5035801;28;20177;-42
2022/11/16 13:47:05;;;;;;;6.35;5.53;;;14.00;43.60;;;;;;5035146;28;20581;-42
2022/11/16 13:49:40;;;;;;;13.75;8.95;;;14.00;43.80;;;;;;5035678;28;20232;-42
2022/11/16 13:52:11;;;;;;;8.68;6.90;;;13.90;43.90;;;;;;5035618;28;20637;-41